• Join FlightAware (Why Join?)
  • Login
  • US Flag 
05:05PM EST


 

Airport Tracker/Info


-or-


 

Live Flight TrackerFlight Track Log ✈ N839CA ✈ 07-May-2013 ✈ KEWR - KBWI

Flight Track Log - Related Links

Times and Time Zones

All times are in EDT time to prevent confusion due to time zone crossing. See the N839CA flight status page for this flight to view local times or setup timezone preferences in your user account.

Time Position Orientation Groundspeed Altitude Reporting Facility
EDT Latitude Longitude Course Direction KTS MPH feet Rate Location/Type
07:48AM 40.4729 -74.5431 232° Southwest  Level Estimated
07:49AM 40.4288 -74.6177 232° Southwest  Level Estimated
07:50AM 40.3847 -74.6922 232° Southwest  Level Estimated
07:51AM 40.3405 -74.7666 232° Southwest  Level Estimated
07:52AM 40.2963 -74.8409 232° Southwest  Level Estimated
07:53AM 40.2521 -74.9151 232° Southwest  Level Estimated
07:54AM 40.2077 -74.9892 232° Southwest  Level Estimated
07:55AM 40.1634 -75.0632 232° Southwest  Level Estimated
07:56AM 40.1190 -75.1372 232° Southwest  Level Estimated
07:57AM 40.0746 -75.2110 232° Southwest  Level Estimated
07:58AM 40.0301 -75.2847 232° Southwest  Level Estimated
07:59AM 39.9855 -75.3583 232° Southwest  Level Estimated
08:00AM 39.9409 -75.4319 232° Southwest  Level Estimated
08:01AM 39.8963 -75.5053 232° Southwest  Level Estimated
08:02AM 39.8516 -75.5787 232° Southwest  Level Estimated
08:03AM 39.8069 -75.6519 232° Southwest  Level Estimated
08:04AM 39.7621 -75.7250 231° Southwest  Level Estimated
08:05AM 39.7173 -75.7981 231° Southwest  Level Estimated
08:06AM 39.6724 -75.8710 231° Southwest  Level Estimated
08:07AM 39.6275 -75.9439 231° Southwest  Level Estimated
08:08AM 39.5826 -76.0167 231° Southwest  Level Estimated
08:09AM 39.5376 -76.0894 231° Southwest  Level Estimated
08:10AM 39.4925 -76.1619 231° Southwest  Level Estimated
08:11AM 39.4474 -76.2344 231° Southwest  Level Estimated
08:12AM 39.4023 -76.3068 231° Southwest  Level Estimated
08:13AM 39.3571 -76.3791 231° Southwest  Level Estimated
08:14AM 39.3119 -76.4513 231° Southwest  Level Estimated
08:15AM 39.2666 -76.5234 231° Southwest  Level Estimated
08:16AM 39.2213 -76.5955 231° Southwest  Level Estimated
08:17AM 39.1760 -76.6674 231° Southwest  Level Estimated
08:18AM 39.1754 -76.6683 231° Southwest  Level Estimated
08:19AM 39.1754 -76.6683 293° West  Level Estimated
08:20AM 39.1754 -76.6683 293° West  Level Estimated
08:21AM 39.1754 -76.6683 293° West  Level Estimated
08:22AM 39.1754 -76.6683 293° West  Level Estimated
08:23AM 39.1754 -76.6683 293° West  Level Estimated
08:24AM 39.1754 -76.6683 293° West  Level Estimated
08:25AM 39.1754 -76.6683 293° West  Level Estimated
08:26AM 39.1754 -76.6683 293° West  Level Estimated
08:27AM 39.1754 -76.6683 293° West  Level Estimated
08:28AM 39.1754 -76.6683 293° West  Level Estimated
08:29AM 39.1754 -76.6683 293° West  Level Estimated
08:30AM 39.1754 -76.6683 293° West  Level Estimated
08:31AM 39.1754 -76.6683 293° West  Level Estimated
08:32AM 39.1754 -76.6683 293° West  Level Estimated
08:33AM 39.1754 -76.6683 293° West  Level Estimated